Chemical Pioneer — KAFO — position and weather

sailwx.info

Track history (hours):
 
Tides and Currents Weather Stations Pressure Air Temp Water Temp Dewpoint Dewpoint Depression Visibility Wind Speed Wind Dir Waves Ship Positions

Chemical Pioneer

More information available from US FCC via Universal Licensing System and Coast Guard Vessel Documentation Center.

Last reported at 2014-Sep-30 09:33 UTC. Time now 2014-Sep-30 10:13 UTC.
Position N 39°21' W 072°20'.

Type: Tanker. MMSI: 366032000.

Date/timePositionNaut miles runAvg speedWind from/ knotsBaromVisibWave heightAir tempDewpointWater temp
2014-Sep-30 09:33N 39°21' W 072°20'7 7.0
2014-Sep-30 08:33N 39°16' W 072°26'7 7.2
2014-Sep-30 07:33N 39°13' W 072°35'7 7.3
2014-Sep-30 06:33N 39°10' W 072°43'8 7.8
2014-Sep-30 05:33N 39°07' W 072°53'8 7.8
2014-Sep-30 04:33N 39°04' W 073°02'8 8.3
2014-Sep-30 03:33N 39°01' W 073°12'8 8.3
2014-Sep-30 02:33N 38°58' W 073°22'8 8.4
2014-Sep-30 01:33N 38°54' W 073°31'8 8.0
2014-Sep-30 00:33N 38°51' W 073°41'8 7.6
2014-Sep-29 23:33N 38°50' W 073°50'8 7.8
2014-Sep-29 22:33N 38°49' W 074°00'8 7.7
2014-Sep-29 21:33N 38°48' W 074°10'8 8.0
2014-Sep-29 20:33N 38°46' W 074°20'1211.6
2014-Sep-29 19:33N 38°46' W 074°35'2912.1
2014-Sep-29 17:11N 38°59' W 075°08'3714.1
2014-Sep-29 14:33N 39°31' W 075°33'1414.1
2014-Sep-29 13:33N 39°44' W 075°30'1312.9
2014-Sep-29 12:32N 39°51' W 075°15'9 8.9
2014-Sep-29 11:33N 39°58' W 075°08'  
2014-Sep-25 06:18N 39°22' W 074°07'1216.6
2014-Sep-25 05:33N 39°33' W 074°00'1616.3
2014-Sep-25 04:33N 39°48' W 073°51'1616.0
2014-Sep-25 03:33N 40°03' W 073°50'1716.2
2014-Sep-25 02:32N 40°20' W 073°50'1313.3
2014-Sep-25 01:33N 40°29' W 074°03'10 9.7
2014-Sep-25 00:34N 40°31' W 074°15'5 0.3
2014-Sep-24 07:33N 40°36' W 074°12'5 5.0
2014-Sep-24 06:33N 40°39' W 074°07'1 0.8
2014-Sep-24 05:33N 40°39' W 074°06'0 0.0
2014-Sep-24 04:33N 40°39' W 074°06'0 0.0
2014-Sep-24 03:33N 40°39' W 074°06'0 0.0
2014-Sep-24 02:33N 40°39' W 074°06'0 0.0
2014-Sep-24 01:33N 40°39' W 074°06'0 0.0
2014-Sep-24 00:33N 40°39' W 074°06'0 0.0
2014-Sep-23 23:33N 40°39' W 074°06'0 0.0
2014-Sep-23 22:33N 40°39' W 074°06'0 0.0
2014-Sep-23 21:33N 40°39' W 074°06'0 0.0
2014-Sep-23 20:33N 40°39' W 074°06'0 0.0
2014-Sep-23 19:33N 40°39' W 074°06'0 0.0
2014-Sep-23 18:30N 40°39' W 074°06'0 0.0
2014-Sep-23 17:33N 40°39' W 074°06'0 0.0
2014-Sep-23 16:30N 40°39' W 074°06'0 0.0
2014-Sep-23 15:33N 40°39' W 074°06'0 0.0
2014-Sep-23 14:33N 40°39' W 074°06'0 0.0
2014-Sep-23 13:33N 40°39' W 074°06'0 0.0
2014-Sep-23 12:33N 40°39' W 074°06'0 0.0
2014-Sep-23 11:33N 40°39' W 074°06'0 0.0
2014-Sep-23 10:27N 40°39' W 074°06'0 0.0
2014-Sep-23 09:27N 40°39' W 074°06'0 0.0
2014-Sep-23 08:33N 40°39' W 074°06'0 0.0
2014-Sep-23 07:33N 40°39' W 074°06'0 0.0
2014-Sep-23 06:21N 40°39' W 074°06'0 0.0
2014-Sep-23 05:33N 40°39' W 074°06'3 3.0
2014-Sep-23 04:33N 40°37' W 074°03'1110.5
2014-Sep-23 03:33N 40°29' W 073°54'1111.3
2014-Sep-23 02:33N 40°19' W 073°46'1515.2
2014-Sep-23 01:33N 40°04' W 073°44'1615.3
2014-Sep-23 00:31N 39°48' W 073°42'1515.3
2014-Sep-22 23:33N 39°34' W 073°45'17715.3
2014-Sep-22 12:00N 36°42' W 074°42'   360 / 171010.010.8 1.027.218.022.2
Track history (hours):
 
Tides and Currents Weather Stations Pressure Air Temp Water Temp Dewpoint Dewpoint Depression Visibility Wind Speed Wind Dir Waves Ship Positions

Chemical Pioneer

More information available from US FCC via Universal Licensing System and Coast Guard Vessel Documentation Center.

Last reported at 2014-Sep-30 09:33 UTC. Time now 2014-Sep-30 10:14 UTC.
Position N 39°21' W 072°20'.

Type: Tanker. MMSI: 366032000.

Date/timePositionNaut miles runAvg speedWind from/ knotsBaromVisibWave heightAir tempDewpointWater temp
2014-Sep-30 09:33N 39°21' W 072°20'7 7.0
2014-Sep-30 08:33N 39°16' W 072°26'7 7.2
2014-Sep-30 07:33N 39°13' W 072°35'7 7.3
2014-Sep-30 06:33N 39°10' W 072°43'8 7.8
2014-Sep-30 05:33N 39°07' W 072°53'8 7.8
2014-Sep-30 04:33N 39°04' W 073°02'8 8.3
2014-Sep-30 03:33N 39°01' W 073°12'8 8.3
2014-Sep-30 02:33N 38°58' W 073°22'8 8.4
2014-Sep-30 01:33N 38°54' W 073°31'8 8.0
2014-Sep-30 00:33N 38°51' W 073°41'8 7.6
2014-Sep-29 23:33N 38°50' W 073°50'8 7.8
2014-Sep-29 22:33N 38°49' W 074°00'8 7.7
2014-Sep-29 21:33N 38°48' W 074°10'8 8.0
2014-Sep-29 20:33N 38°46' W 074°20'1211.6
2014-Sep-29 19:33N 38°46' W 074°35'2912.1
2014-Sep-29 17:11N 38°59' W 075°08'3714.1
2014-Sep-29 14:33N 39°31' W 075°33'1414.1
2014-Sep-29 13:33N 39°44' W 075°30'1312.9
2014-Sep-29 12:32N 39°51' W 075°15'9 8.9
2014-Sep-29 11:33N 39°58' W 075°08'  
2014-Sep-25 06:18N 39°22' W 074°07'1216.6
2014-Sep-25 05:33N 39°33' W 074°00'1616.3
2014-Sep-25 04:33N 39°48' W 073°51'1616.0
2014-Sep-25 03:33N 40°03' W 073°50'1716.2
2014-Sep-25 02:32N 40°20' W 073°50'1313.3
2014-Sep-25 01:33N 40°29' W 074°03'10 9.7
2014-Sep-25 00:34N 40°31' W 074°15'5 0.3
2014-Sep-24 07:33N 40°36' W 074°12'5 5.0
2014-Sep-24 06:33N 40°39' W 074°07'1 0.8
2014-Sep-24 05:33N 40°39' W 074°06'0 0.0
2014-Sep-24 04:33N 40°39' W 074°06'0 0.0
2014-Sep-24 03:33N 40°39' W 074°06'0 0.0
2014-Sep-24 02:33N 40°39' W 074°06'0 0.0
2014-Sep-24 01:33N 40°39' W 074°06'0 0.0
2014-Sep-24 00:33N 40°39' W 074°06'0 0.0
2014-Sep-23 23:33N 40°39' W 074°06'0 0.0
2014-Sep-23 22:33N 40°39' W 074°06'0 0.0
2014-Sep-23 21:33N 40°39' W 074°06'0 0.0
2014-Sep-23 20:33N 40°39' W 074°06'0 0.0
2014-Sep-23 19:33N 40°39' W 074°06'0 0.0
2014-Sep-23 18:30N 40°39' W 074°06'0 0.0
2014-Sep-23 17:33N 40°39' W 074°06'0 0.0
2014-Sep-23 16:30N 40°39' W 074°06'0 0.0
2014-Sep-23 15:33N 40°39' W 074°06'0 0.0
2014-Sep-23 14:33N 40°39' W 074°06'0 0.0
2014-Sep-23 13:33N 40°39' W 074°06'0 0.0
2014-Sep-23 12:33N 40°39' W 074°06'0 0.0
2014-Sep-23 11:33N 40°39' W 074°06'0 0.0
2014-Sep-23 10:27N 40°39' W 074°06'0 0.0
2014-Sep-23 09:27N 40°39' W 074°06'0 0.0
2014-Sep-23 08:33N 40°39' W 074°06'0 0.0
2014-Sep-23 07:33N 40°39' W 074°06'0 0.0
2014-Sep-23 06:21N 40°39' W 074°06'0 0.0
2014-Sep-23 05:33N 40°39' W 074°06'3 3.0
2014-Sep-23 04:33N 40°37' W 074°03'1110.5
2014-Sep-23 03:33N 40°29' W 073°54'1111.3
2014-Sep-23 02:33N 40°19' W 073°46'1515.2
2014-Sep-23 01:33N 40°04' W 073°44'1615.3
2014-Sep-23 00:31N 39°48' W 073°42'1515.3
2014-Sep-22 23:33N 39°34' W 073°45'17715.3
2014-Sep-22 12:00N 36°42' W 074°42'   360 / 171010.010.8 1.027.218.022.2

Dump ship's entire track history